createdAt,value
2022-09-21T00:01:35.543Z,102065.91
2022-09-21T00:04:04.180Z,102064.06
2022-09-21T00:06:34.419Z,102058.22
2022-09-21T00:09:05.084Z,102054.31
2022-09-21T00:11:36.064Z,102059.53
2022-09-21T00:14:10.582Z,102062.38
2022-09-21T00:16:40.964Z,102058.03
2022-09-21T00:19:10.420Z,102055.13
2022-09-21T00:21:39.678Z,102049.00
2022-09-21T00:24:08.581Z,102055.38
2022-09-21T00:26:37.925Z,102058.97
2022-09-21T00:29:06.114Z,102059.56
2022-09-21T00:31:35.007Z,102055.03
2022-09-21T00:34:07.956Z,102055.06
2022-09-21T00:36:36.228Z,102058.00
2022-09-21T00:39:04.215Z,102056.28
2022-09-21T00:41:33.572Z,102058.66
2022-09-21T00:44:23.076Z,102057.03
2022-09-21T00:46:54.050Z,102060.63
2022-09-21T00:49:23.105Z,102054.31
2022-09-21T00:51:53.651Z,102047.22
2022-09-21T00:54:30.106Z,102054.53
2022-09-21T00:57:03.558Z,102050.72
2022-09-21T00:59:37.923Z,102050.69
2022-09-21T01:02:07.783Z,102055.56
2022-09-21T01:04:35.618Z,102061.34
2022-09-21T01:07:11.548Z,102052.53
2022-09-21T01:09:45.005Z,102053.41
2022-09-21T01:12:22.142Z,102056.09
2022-09-21T01:15:25.578Z,102046.78
2022-09-21T01:18:07.042Z,102057.16
2022-09-21T01:20:57.643Z,102049.41
2022-09-21T01:23:41.071Z,102054.59
2022-09-21T01:26:28.496Z,102053.41
2022-09-21T01:29:33.042Z,102053.19
2022-09-21T01:32:20.936Z,102053.09
2022-09-21T01:35:15.556Z,102053.16
2022-09-21T01:38:01.839Z,102053.16
2022-09-21T01:40:43.981Z,102053.13
2022-09-21T01:43:20.970Z,102052.78
2022-09-21T01:45:52.532Z,102050.28
2022-09-21T01:48:22.511Z,102051.88
2022-09-21T01:50:57.666Z,102046.59
2022-09-21T01:53:40.889Z,102059.25
2022-09-21T01:56:18.863Z,102058.34
2022-09-21T01:58:50.080Z,102048.50
2022-09-21T02:01:22.929Z,102044.84
2022-09-21T02:04:00.003Z,102046.22
2022-09-21T02:06:31.033Z,102048.78
2022-09-21T02:08:58.497Z,102041.41
2022-09-21T02:11:26.997Z,102043.94
2022-09-21T02:13:56.199Z,102044.59
2022-09-21T02:16:45.558Z,102051.38
2022-09-21T02:19:37.780Z,102044.88
2022-09-21T02:22:07.608Z,102051.09
2022-09-21T02:24:55.131Z,102044.19
2022-09-21T02:28:00.804Z,102047.81
2022-09-21T02:30:32.547Z,102046.06
2022-09-21T02:33:26.729Z,102035.03
2022-09-21T02:36:10.603Z,102039.16
2022-09-21T02:38:52.436Z,102039.63
2022-09-21T02:41:37.539Z,102043.91
2022-09-21T02:44:18.891Z,102047.00
2022-09-21T02:46:55.696Z,102041.19
2022-09-21T02:49:35.312Z,102044.53
2022-09-21T02:52:10.377Z,102044.19
2022-09-21T02:54:40.380Z,102036.38
2022-09-21T02:57:09.090Z,102039.56
2022-09-21T02:59:37.686Z,102041.34
2022-09-21T03:02:07.060Z,102040.47
2022-09-21T03:04:34.505Z,102043.72
2022-09-21T03:07:01.888Z,102045.59
2022-09-21T03:09:30.086Z,102039.84
2022-09-21T03:11:57.418Z,102039.75
2022-09-21T03:14:28.546Z,102034.16
2022-09-21T03:16:55.939Z,102036.03
2022-09-21T03:19:23.231Z,102039.31
2022-09-21T03:21:51.842Z,102037.38
2022-09-21T03:24:41.096Z,102036.50
2022-09-21T03:27:10.839Z,102031.88
2022-09-21T03:29:38.865Z,102028.28
2022-09-21T03:32:08.611Z,102026.50
2022-09-21T03:34:36.927Z,102027.63
2022-09-21T03:37:06.559Z,102022.28
2022-09-21T03:39:34.226Z,102022.44
2022-09-21T03:42:02.698Z,102020.78
2022-09-21T03:44:31.278Z,102023.66
2022-09-21T03:46:58.721Z,102019.00
2022-09-21T03:49:26.364Z,102015.31
2022-09-21T03:51:55.444Z,102009.09
2022-09-21T03:54:22.828Z,102013.56
2022-09-21T03:56:51.600Z,102009.94
2022-09-21T03:59:20.596Z,102015.41
2022-09-21T04:01:48.032Z,102015.56
2022-09-21T04:04:16.654Z,102014.56
2022-09-21T04:06:46.291Z,102014.66
2022-09-21T04:09:13.686Z,102012.00
2022-09-21T04:11:42.063Z,102004.00
2022-09-21T04:14:11.884Z,102014.53
2022-09-21T04:16:40.230Z,102004.34
2022-09-21T04:19:08.417Z,102005.91
2022-09-21T04:21:36.742Z,102004.97
2022-09-21T04:24:04.414Z,102001.50
2022-09-21T04:26:36.542Z,102007.88
2022-09-21T04:29:05.621Z,102012.41
2022-09-21T04:31:33.823Z,102010.75
2022-09-21T04:34:03.577Z,102015.72
2022-09-21T04:36:36.443Z,102014.06
2022-09-21T04:39:06.844Z,102016.91
2022-09-21T04:41:35.101Z,102017.47
2022-09-21T04:44:02.887Z,102018.47
2022-09-21T04:46:31.020Z,102018.63
2022-09-21T04:48:58.870Z,102017.91
2022-09-21T04:51:26.098Z,102017.66
2022-09-21T04:53:53.445Z,102014.19
2022-09-21T04:56:21.797Z,102009.94
2022-09-21T04:58:50.705Z,102016.78
2022-09-21T05:01:18.614Z,102016.78
2022-09-21T05:03:46.193Z,102022.09
2022-09-21T05:06:13.788Z,102015.31
2022-09-21T05:09:00.554Z,102011.91
2022-09-21T05:11:30.264Z,102016.44
2022-09-21T05:13:57.753Z,102013.41
2022-09-21T05:16:26.437Z,102015.44
2022-09-21T05:18:57.154Z,102015.31
2022-09-21T05:21:25.992Z,102010.66
2022-09-21T05:23:54.583Z,102022.88
2022-09-21T05:26:23.820Z,102019.34
2022-09-21T05:28:51.939Z,102023.38
2022-09-21T05:31:28.196Z,102021.88
2022-09-21T05:34:08.336Z,102028.63
2022-09-21T05:37:02.059Z,102029.44
2022-09-21T05:39:31.389Z,102028.88
2022-09-21T05:41:59.842Z,102026.97
2022-09-21T05:44:27.715Z,102026.09
2022-09-21T05:47:17.451Z,102030.66
2022-09-21T05:49:56.285Z,102030.50
2022-09-21T05:52:49.907Z,102029.78
2022-09-21T05:55:39.895Z,102022.13
2022-09-21T05:58:32.170Z,102030.66
2022-09-21T06:01:06.718Z,102027.19
2022-09-21T06:03:36.240Z,102025.75
2022-09-21T06:06:04.426Z,102030.03
2022-09-21T06:08:31.857Z,102031.13
2022-09-21T06:11:00.121Z,102033.94
2022-09-21T06:13:28.028Z,102033.03
2022-09-21T06:15:55.850Z,102035.69
2022-09-21T06:18:23.718Z,102036.66
2022-09-21T06:20:51.291Z,102039.44
2022-09-21T06:23:21.384Z,102030.78
2022-09-21T06:25:57.495Z,102034.50
2022-09-21T06:28:28.018Z,102039.94
2022-09-21T06:30:56.654Z,102036.75
2022-09-21T06:33:25.505Z,102041.50
2022-09-21T06:35:58.389Z,102044.47
2022-09-21T06:38:27.822Z,102045.81
2022-09-21T06:40:55.776Z,102042.31
2022-09-21T06:43:24.219Z,102037.72
2022-09-21T06:45:56.308Z,102039.84
2022-09-21T06:48:25.141Z,102033.91
2022-09-21T06:50:58.622Z,102032.16
2022-09-21T06:53:30.364Z,102037.31
2022-09-21T06:56:07.430Z,102043.25
2022-09-21T06:58:35.885Z,102029.75
2022-09-21T07:01:07.781Z,102034.66
2022-09-21T07:03:35.727Z,102031.91
2022-09-21T07:06:03.529Z,102034.47
2022-09-21T07:11:19.451Z,102028.63
2022-09-21T07:13:47.202Z,102025.59
2022-09-21T07:16:15.041Z,102034.31
2022-09-21T07:18:43.916Z,102026.88
2022-09-21T07:21:12.287Z,102025.56
2022-09-21T07:23:39.676Z,102023.13
2022-09-21T07:26:12.191Z,102035.50
2022-09-21T07:28:40.945Z,102028.81
2022-09-21T07:31:15.120Z,102025.81
2022-09-21T07:33:43.823Z,102027.28
2022-09-21T07:36:13.161Z,102026.13
2022-09-21T07:38:43.551Z,102028.28
2022-09-21T07:41:13.441Z,102030.22
2022-09-21T07:43:42.050Z,102036.75
2022-09-21T07:46:12.844Z,102028.38
2022-09-21T07:48:40.714Z,102029.34
2022-09-21T07:51:13.395Z,102022.41
2022-09-21T07:53:45.740Z,102028.75
2022-09-21T07:56:17.600Z,102027.78
2022-09-21T07:59:04.086Z,102027.47
2022-09-21T08:01:39.926Z,102019.16
2022-09-21T08:04:10.664Z,102024.34
2022-09-21T08:06:40.409Z,102022.56
2022-09-21T08:09:08.865Z,102027.94
2022-09-21T08:11:37.663Z,102027.06
2022-09-21T08:14:06.007Z,102025.03
2022-09-21T08:16:34.165Z,102028.63
2022-09-21T08:19:04.879Z,102016.38
2022-09-21T08:21:32.412Z,102021.78
2022-09-21T08:24:00.316Z,102024.50
2022-09-21T08:26:28.007Z,102025.50
2022-09-21T08:28:58.740Z,102029.28
2022-09-21T08:31:27.986Z,102033.88
2022-09-21T08:33:57.783Z,102036.63
2022-09-21T08:36:25.781Z,102040.31
2022-09-21T08:38:55.671Z,102031.41
2022-09-21T08:41:33.296Z,102035.41
2022-09-21T08:44:13.431Z,102030.31
2022-09-21T08:46:43.415Z,102029.69
2022-09-21T08:49:18.126Z,102024.81
2022-09-21T08:51:59.271Z,102032.72
2022-09-21T08:54:33.560Z,102041.44
2022-09-21T08:57:05.273Z,102038.47
2022-09-21T08:59:35.920Z,102040.03
2022-09-21T09:02:20.589Z,102038.53
2022-09-21T09:05:08.403Z,102048.59
2022-09-21T09:08:13.336Z,102043.44
2022-09-21T09:11:07.485Z,102043.53
2022-09-21T09:13:55.918Z,102046.00
2022-09-21T09:16:30.592Z,102045.09
2022-09-21T09:19:00.221Z,102039.38
2022-09-21T09:21:32.690Z,102045.16
2022-09-21T09:24:09.474Z,102044.28
2022-09-21T09:26:50.695Z,102042.19
2022-09-21T09:29:39.834Z,102051.06
2022-09-21T09:32:14.253Z,102044.75
2022-09-21T09:34:53.865Z,102042.72
2022-09-21T09:37:30.996Z,102048.78
2022-09-21T09:40:00.870Z,102046.25
2022-09-21T09:42:34.567Z,102048.44
2022-09-21T09:45:21.730Z,102049.69
2022-09-21T09:48:33.936Z,102045.56
2022-09-21T09:51:02.047Z,102049.53
2022-09-21T09:53:29.771Z,102046.72
2022-09-21T09:55:59.888Z,102046.22
2022-09-21T09:58:44.012Z,102051.91
2022-09-21T10:01:38.121Z,102044.03
2022-09-21T10:04:08.841Z,102045.13
2022-09-21T10:06:40.160Z,102051.75
2022-09-21T10:09:27.589Z,102045.41
2022-09-21T10:12:28.176Z,102055.44
2022-09-21T10:15:00.948Z,102046.53
2022-09-21T10:17:29.171Z,102042.44
2022-09-21T10:20:06.416Z,102035.56
2022-09-21T10:22:34.978Z,102033.59
2022-09-21T10:25:06.300Z,102021.59
2022-09-21T10:27:37.862Z,102027.66
2022-09-21T10:30:06.469Z,102036.16
2022-09-21T10:32:36.875Z,102016.31
2022-09-21T10:35:11.844Z,102018.56
2022-09-21T10:37:43.365Z,102019.81
2022-09-21T10:40:21.611Z,102014.66
2022-09-21T10:42:58.602Z,102011.63
2022-09-21T10:45:34.948Z,102007.34
2022-09-21T10:48:06.340Z,101997.25
2022-09-21T10:50:41.637Z,102002.22
2022-09-21T10:53:09.075Z,102000.88
2022-09-21T10:55:58.560Z,102008.66
2022-09-21T10:58:36.825Z,101997.50
2022-09-21T11:01:23.362Z,102005.25
2022-09-21T11:03:59.404Z,101999.84
2022-09-21T11:06:38.552Z,101988.19
2022-09-21T11:09:17.019Z,101989.91
2022-09-21T11:12:18.379Z,101979.78
2022-09-21T11:14:53.389Z,101987.22
2022-09-21T11:17:44.724Z,101984.59
2022-09-21T11:20:28.254Z,101974.69
2022-09-21T11:23:14.428Z,101976.03
2022-09-21T11:26:05.360Z,101975.41
2022-09-21T11:29:07.328Z,101965.56
2022-09-21T11:31:51.737Z,101960.88
2022-09-21T11:34:45.817Z,101962.81
2022-09-21T11:37:18.874Z,101953.69
2022-09-21T11:39:59.283Z,101959.84
2022-09-21T11:42:43.412Z,101949.91
2022-09-21T11:45:29.879Z,101949.78
2022-09-21T11:48:13.682Z,101943.91
2022-09-21T11:50:58.893Z,101943.41
2022-09-21T11:53:54.325Z,101944.31
2022-09-21T11:56:47.321Z,101953.25
2022-09-21T11:59:45.153Z,101936.31
2022-09-21T12:02:34.338Z,101936.06
2022-09-21T12:05:06.278Z,101930.31
2022-09-21T12:07:55.300Z,101931.53
2022-09-21T12:10:57.358Z,101931.44
2022-09-21T12:13:49.958Z,101934.38
2022-09-21T12:16:36.178Z,101927.06
2022-09-21T12:19:28.725Z,101916.97
2022-09-21T12:22:09.339Z,101912.25
2022-09-21T12:24:44.367Z,101909.56
2022-09-21T12:27:31.533Z,101914.28
2022-09-21T12:30:04.994Z,101907.00
2022-09-21T12:33:09.395Z,101916.13
2022-09-21T12:36:00.017Z,101906.88
2022-09-21T12:38:36.642Z,101910.06
2022-09-21T12:41:13.566Z,101913.78
2022-09-21T12:44:01.112Z,101898.69
2022-09-21T12:46:34.863Z,101898.75
2022-09-21T12:49:14.259Z,101900.38
2022-09-21T12:51:47.769Z,101892.19
2022-09-21T12:54:28.263Z,101897.06
2022-09-21T12:57:49.099Z,101886.94
2022-09-21T13:00:22.235Z,101881.72
2022-09-21T13:03:15.704Z,101875.25
2022-09-21T13:06:09.331Z,101871.44
2022-09-21T13:08:44.246Z,101869.94
2022-09-21T13:11:20.953Z,101871.09
2022-09-21T13:14:07.746Z,101865.56
2022-09-21T13:16:38.989Z,101868.13
2022-09-21T13:19:15.089Z,101868.00
2022-09-21T13:21:46.810Z,101873.97
2022-09-21T13:24:30.532Z,101864.19
2022-09-21T13:27:08.140Z,101860.75
2022-09-21T13:29:42.268Z,101856.66
2022-09-21T13:32:14.089Z,101850.53
2022-09-21T13:34:45.424Z,101857.31
2022-09-21T13:37:15.902Z,101838.50
2022-09-21T13:39:44.281Z,101848.16
2022-09-21T13:42:30.265Z,101853.69
2022-09-21T13:45:00.133Z,101847.69
2022-09-21T13:47:33.491Z,101844.91
2022-09-21T13:50:13.220Z,101839.47
2022-09-21T13:52:52.433Z,101849.31
2022-09-21T13:56:09.815Z,101841.75
2022-09-21T13:58:45.844Z,101833.00
2022-09-21T14:01:45.068Z,101842.66
2022-09-21T14:04:31.884Z,101830.34
2022-09-21T14:07:06.324Z,101827.66
2022-09-21T14:09:56.299Z,101824.09
2022-09-21T14:12:27.020Z,101835.63
2022-09-21T14:15:22.751Z,101822.06
2022-09-21T14:18:36.830Z,101812.25
2022-09-21T14:21:18.361Z,101807.81
2022-09-21T14:24:06.063Z,101809.34
2022-09-21T14:26:50.422Z,101814.38
2022-09-21T14:29:38.653Z,101802.72
2022-09-21T14:32:16.343Z,101805.25
2022-09-21T14:34:47.290Z,101802.50
2022-09-21T14:37:34.062Z,101796.31
2022-09-21T14:40:16.729Z,101798.16
2022-09-21T14:42:45.122Z,101790.16
2022-09-21T14:45:20.732Z,101781.09
2022-09-21T14:48:34.699Z,101799.50
2022-09-21T14:51:31.437Z,101800.97
2022-09-21T14:54:31.828Z,101787.81
2022-09-21T14:57:34.874Z,101792.06
2022-09-21T15:00:21.900Z,101797.47
2022-09-21T15:03:25.532Z,101790.38
2022-09-21T15:06:40.897Z,101784.13
2022-09-21T15:09:44.645Z,101785.03
2022-09-21T15:12:32.418Z,101780.69
2022-09-21T15:15:20.385Z,101771.72
2022-09-21T15:18:00.066Z,101767.28
2022-09-21T15:20:30.351Z,101767.00
2022-09-21T15:23:00.377Z,101755.47
2022-09-21T15:25:33.955Z,101760.97
2022-09-21T15:28:04.002Z,101751.25
2022-09-21T15:30:33.280Z,101758.28
2022-09-21T15:33:02.870Z,101759.03
2022-09-21T15:35:36.203Z,101750.09
2022-09-21T15:38:05.011Z,101753.75
2022-09-21T15:40:35.434Z,101752.34
2022-09-21T15:43:08.868Z,101754.09
2022-09-21T15:45:45.877Z,101744.97
2022-09-21T15:48:15.046Z,101749.41
2022-09-21T15:50:45.742Z,101741.34
2022-09-21T15:53:24.082Z,101756.66
2022-09-21T15:55:52.441Z,101743.47
2022-09-21T15:58:49.969Z,101752.31
2022-09-21T16:01:23.692Z,101745.38
2022-09-21T16:04:09.100Z,101738.31
2022-09-21T16:06:41.711Z,101734.78
2022-09-21T16:09:26.569Z,101737.69
2022-09-21T16:11:57.188Z,101749.25
2022-09-21T16:14:43.760Z,101745.00
2022-09-21T16:17:18.071Z,101743.09
2022-09-21T16:20:12.046Z,101739.50
2022-09-21T16:22:45.455Z,101749.13
2022-09-21T16:25:33.029Z,101740.41
2022-09-21T16:28:26.023Z,101750.03
2022-09-21T16:30:59.388Z,101746.59
2022-09-21T16:33:42.387Z,101742.16
2022-09-21T16:36:48.274Z,101742.13
2022-09-21T16:39:17.489Z,101741.28
2022-09-21T16:41:51.074Z,101732.34
2022-09-21T16:44:25.610Z,101740.41
2022-09-21T16:46:57.078Z,101742.13
2022-09-21T16:49:30.258Z,101740.56
2022-09-21T16:51:59.840Z,101745.13
2022-09-21T16:54:28.337Z,101739.84
2022-09-21T16:56:59.490Z,101738.13
2022-09-21T16:59:29.882Z,101741.66
2022-09-21T17:01:58.488Z,101753.97
2022-09-21T17:04:31.646Z,101746.91
2022-09-21T17:06:59.608Z,101744.34
2022-09-21T17:09:32.062Z,101744.44
2022-09-21T17:12:01.768Z,101745.50
2022-09-21T17:14:35.409Z,101735.88
2022-09-21T17:17:17.627Z,101743.03
2022-09-21T17:19:50.048Z,101755.56
2022-09-21T17:22:19.915Z,101742.31
2022-09-21T17:24:54.857Z,101746.72
2022-09-21T17:27:27.131Z,101752.09
2022-09-21T17:29:55.392Z,101740.59
2022-09-21T17:32:24.749Z,101742.50
2022-09-21T17:35:01.758Z,101739.91
2022-09-21T17:37:29.538Z,101742.53
2022-09-21T17:39:57.756Z,101740.66
2022-09-21T17:42:28.578Z,101743.28
2022-09-21T17:45:06.890Z,101742.53
2022-09-21T17:47:35.516Z,101743.56
2022-09-21T17:50:13.524Z,101749.72
2022-09-21T17:53:02.342Z,101748.00
2022-09-21T17:55:30.840Z,101743.69
2022-09-21T17:58:14.482Z,101754.41
2022-09-21T18:01:02.172Z,101751.78
2022-09-21T18:03:36.048Z,101744.03
2022-09-21T18:06:04.155Z,101745.78
2022-09-21T18:08:34.419Z,101740.50
2022-09-21T18:11:48.501Z,101745.91
2022-09-21T18:14:25.130Z,101738.88
2022-09-21T18:17:22.034Z,101742.63
2022-09-21T18:19:56.782Z,101742.72
2022-09-21T18:22:44.246Z,101747.16
2022-09-21T18:25:16.251Z,101750.59
2022-09-21T18:27:47.373Z,101748.88
2022-09-21T18:30:17.564Z,101758.63
2022-09-21T18:33:17.887Z,101754.16
2022-09-21T18:36:20.218Z,101748.88
2022-09-21T18:39:24.022Z,101764.88
2022-09-21T18:42:06.448Z,101765.84
2022-09-21T18:44:42.837Z,101774.69
2022-09-21T18:47:20.127Z,101769.50
2022-09-21T18:49:47.417Z,101771.44
2022-09-21T18:52:14.742Z,101771.28
2022-09-21T18:54:44.192Z,101769.53
2022-09-21T18:57:14.582Z,101769.66
2022-09-21T18:59:43.068Z,101780.94
2022-09-21T19:02:18.108Z,101772.13
2022-09-21T19:04:49.322Z,101775.81
2022-09-21T19:07:22.782Z,101775.91
2022-09-21T19:10:06.870Z,101774.22
2022-09-21T19:13:06.683Z,101772.38
2022-09-21T19:16:18.030Z,101773.28
2022-09-21T19:19:14.239Z,101775.16
2022-09-21T19:22:08.148Z,101775.16
2022-09-21T19:24:50.105Z,101778.72
2022-09-21T19:27:26.280Z,101774.38
2022-09-21T19:30:14.545Z,101778.78
2022-09-21T19:32:58.168Z,101791.25
2022-09-21T19:35:31.915Z,101786.97
2022-09-21T19:38:02.627Z,101784.47
2022-09-21T19:40:37.807Z,101786.19
2022-09-21T19:43:28.495Z,101781.88
2022-09-21T19:46:25.557Z,101782.81
2022-09-21T19:48:59.725Z,101773.19
2022-09-21T19:51:50.334Z,101785.56
2022-09-21T19:54:43.415Z,101785.59
2022-09-21T19:57:35.039Z,101790.03
2022-09-21T20:00:11.750Z,101792.66
2022-09-21T20:03:05.686Z,101792.66
2022-09-21T20:06:02.061Z,101797.13
2022-09-21T20:08:34.259Z,101794.50
2022-09-21T20:11:37.131Z,101792.75
2022-09-21T20:14:19.318Z,101799.81
2022-09-21T20:17:02.141Z,101809.47
2022-09-21T20:19:46.927Z,101798.84
2022-09-21T20:22:28.669Z,101809.44
2022-09-21T20:25:02.547Z,101816.56
2022-09-21T20:27:40.673Z,101813.94
2022-09-21T20:30:12.608Z,101810.38
2022-09-21T20:32:44.586Z,101808.66
2022-09-21T20:35:20.366Z,101813.06
2022-09-21T20:37:48.339Z,101816.53
2022-09-21T20:40:16.223Z,101816.59
2022-09-21T20:42:45.050Z,101819.19
2022-09-21T20:45:14.416Z,101813.03
2022-09-21T20:47:42.931Z,101813.06
2022-09-21T20:50:11.974Z,101815.72
2022-09-21T20:52:45.166Z,101813.06
2022-09-21T20:55:20.473Z,101805.16
2022-09-21T20:57:48.684Z,101812.19
2022-09-21T21:00:17.068Z,101809.56
2022-09-21T21:02:46.654Z,101805.13
2022-09-21T21:05:14.036Z,101807.75
2022-09-21T21:07:44.527Z,101801.63
2022-09-21T21:10:17.439Z,101808.66
2022-09-21T21:12:45.333Z,101807.78
2022-09-21T21:15:12.717Z,101806.03
2022-09-21T21:17:41.759Z,101805.16
2022-09-21T21:20:10.435Z,101806.94
2022-09-21T21:22:38.811Z,101811.28
2022-09-21T21:25:06.577Z,101799.81
2022-09-21T21:27:34.193Z,101799.81
2022-09-21T21:30:02.300Z,101805.09
2022-09-21T21:32:33.657Z,101807.69
2022-09-21T21:35:02.093Z,101801.53
2022-09-21T21:37:29.870Z,101806.81
2022-09-21T21:39:57.320Z,101799.78
2022-09-21T21:42:27.264Z,101802.41
2022-09-21T21:44:56.598Z,101799.75
2022-09-21T21:47:39.192Z,101797.16
2022-09-21T21:50:07.965Z,101802.41
2022-09-21T21:52:35.390Z,101796.22
2022-09-21T21:55:03.112Z,101789.19
2022-09-21T21:57:30.477Z,101793.56
2022-09-21T21:59:58.658Z,101794.44
2022-09-21T22:02:26.136Z,101801.41
2022-09-21T22:04:54.157Z,101804.03
2022-09-21T22:07:21.514Z,101802.16
2022-09-21T22:09:49.904Z,101805.78
2022-09-21T22:12:17.653Z,101795.28
2022-09-21T22:14:48.624Z,101790.94
2022-09-21T22:17:18.115Z,101794.41
2022-09-21T22:19:45.615Z,101791.78
2022-09-21T22:22:13.641Z,101798.78
2022-09-21T22:24:41.430Z,101797.00
2022-09-21T22:27:11.170Z,101792.59
2022-09-21T22:29:40.944Z,101791.63
2022-09-21T22:32:08.363Z,101794.25
2022-09-21T22:34:35.710Z,101795.09
2022-09-21T22:37:03.894Z,101795.97
2022-09-21T22:39:32.534Z,101790.72
2022-09-21T22:42:01.567Z,101791.59
2022-09-21T22:44:29.529Z,101788.91
2022-09-21T22:46:57.394Z,101788.88
2022-09-21T22:49:24.747Z,101781.84
2022-09-21T22:51:53.009Z,101791.44
2022-09-21T22:54:21.240Z,101779.13
2022-09-21T22:56:48.650Z,101780.88
2022-09-21T22:59:15.887Z,101788.75
2022-09-21T23:01:43.252Z,101787.94
2022-09-21T23:04:12.915Z,101776.47
2022-09-21T23:06:46.437Z,101776.44
2022-09-21T23:09:17.042Z,101785.22
2022-09-21T23:11:54.038Z,101774.69
2022-09-21T23:14:23.113Z,101771.19
2022-09-21T23:16:50.641Z,101768.50
2022-09-21T23:19:19.108Z,101775.50
2022-09-21T23:21:52.912Z,101772.84
2022-09-21T23:24:22.744Z,101771.94
2022-09-21T23:26:52.848Z,101778.06
2022-09-21T23:29:20.314Z,101771.03
2022-09-21T23:31:49.208Z,101771.91
2022-09-21T23:34:18.550Z,101772.78
2022-09-21T23:36:47.174Z,101771.88
2022-09-21T23:39:15.907Z,101772.75
2022-09-21T23:41:43.984Z,101778.06
2022-09-21T23:44:12.990Z,101779.81
2022-09-21T23:46:40.617Z,101773.59
2022-09-21T23:49:09.068Z,101777.94
2022-09-21T23:51:36.540Z,101779.78
2022-09-21T23:54:05.664Z,101779.78
2022-09-21T23:56:33.454Z,101774.50
2022-09-21T23:59:01.460Z,101769.16
